Time;durP1;ratioP1;P1;durP2;ratioP2;P2;SDS_P1;SDS_P2;PMS_P1;PMS_P2;Temp;Humidity;BMP_temperature;BMP_pressure;BME280_temperature;BME280_humidity;BME280_pressure;Samples;Min_cycle;Max_cycle;Signal;HPM_P1;HPM_P2
2023/03/26 00:01:24;;;;;;;0.35;0.35;;;;;;;10.10;76.10;94141.47;5063548;28;20230;-77
2023/03/26 00:03:53;;;;;;;0.35;0.30;;;;;;;9.98;76.65;94140.31;5054671;28;20202;-79
2023/03/26 00:06:22;;;;;;;0.70;0.52;;;;;;;9.97;76.95;94146.06;5054526;28;20239;-78
2023/03/26 00:08:50;;;;;;;0.30;0.30;;;;;;;9.90;77.38;94157.44;5058485;28;20787;-79
2023/03/26 00:11:19;;;;;;;0.47;0.40;;;;;;;9.87;77.62;94155.38;5060992;28;20207;-77
2023/03/26 00:13:46;;;;;;;0.40;0.40;;;;;;;9.78;77.79;94157.41;5056668;28;20222;-77
2023/03/26 00:16:18;;;;;;;0.50;0.40;;;;;;;9.79;78.15;94150.88;5052400;28;20239;-79
2023/03/26 00:18:47;;;;;;;0.38;0.30;;;;;;;9.75;78.21;94152.66;5063241;28;20625;-79
2023/03/26 00:21:16;;;;;;;0.57;0.47;;;;;;;9.73;78.34;94141.38;5053761;28;20223;-78
2023/03/26 00:23:43;;;;;;;0.43;0.43;;;;;;;9.72;78.77;94153.31;5066080;28;20727;-78
2023/03/26 00:26:11;;;;;;;0.50;0.50;;;;;;;9.60;79.20;94140.56;5051264;28;20200;-79
2023/03/26 00:28:40;;;;;;;0.40;0.40;;;;;;;9.68;78.86;94135.41;5065860;28;20206;-79
2023/03/26 00:31:10;;;;;;;0.55;0.55;;;;;;;9.68;79.31;94144.31;5053347;28;20950;-79
2023/03/26 00:33:39;;;;;;;0.60;0.50;;;;;;;9.67;78.69;94126.50;5054717;28;20604;-78
2023/03/26 00:36:13;;;;;;;0.25;0.25;;;;;;;9.62;78.57;94126.69;5060196;28;20605;-77
2023/03/26 00:38:41;;;;;;;0.75;0.45;;;;;;;9.67;78.19;94123.78;5062205;28;20612;-78
2023/03/26 00:41:16;;;;;;;0.32;0.32;;;;;;;9.69;76.98;94110.75;5062877;28;20203;-79
2023/03/26 00:43:44;;;;;;;0.30;0.30;;;;;;;9.75;76.20;94109.38;5066004;28;20218;-79
2023/03/26 00:46:11;;;;;;;0.32;0.32;;;;;;;9.81;76.02;94118.88;5052921;28;20662;-79
2023/03/26 00:48:41;;;;;;;0.40;0.40;;;;;;;9.75;76.13;94114.78;5050597;28;20198;-83
2023/03/26 00:51:10;;;;;;;0.30;0.30;;;;;;;9.78;76.26;94124.94;5048835;28;20222;-77
2023/03/26 00:53:37;;;;;;;0.43;0.43;;;;;;;9.75;76.11;94112.09;5064128;28;20203;-78
2023/03/26 00:56:05;;;;;;;0.30;0.30;;;;;;;9.73;76.38;94118.94;5056374;28;20278;-81
2023/03/26 00:58:32;;;;;;;0.55;0.30;;;;;;;9.71;76.52;94119.28;5053716;28;20216;-77
2023/03/26 01:01:02;;;;;;;0.30;0.30;;;;;;;9.83;74.61;94122.03;5062837;28;20226;-78
2023/03/26 01:03:33;;;;;;;0.20;0.20;;;;;;;9.84;74.48;94115.47;5050326;28;20222;-83
2023/03/26 01:06:03;;;;;;;0.75;0.68;;;;;;;9.84;74.54;94128.25;5057895;28;20214;-79
2023/03/26 01:08:33;;;;;;;0.30;0.30;;;;;;;9.92;73.89;94120.03;5053705;28;20636;-78
2023/03/26 01:11:05;;;;;;;0.63;0.40;;;;;;;9.86;74.16;94121.34;5054620;28;20200;-78
2023/03/26 01:13:35;;;;;;;0.40;0.40;;;;;;;9.85;74.33;94129.78;5060561;28;20200;-82
2023/03/26 01:16:03;;;;;;;1.98;0.50;;;;;;;9.86;74.39;94126.75;5055713;28;20295;-77
2023/03/26 01:18:39;;;;;;;0.30;0.30;;;;;;;9.78;74.69;94114.13;5051576;28;20321;-77
2023/03/26 01:21:13;;;;;;;3.50;1.85;;;;;;;9.77;74.99;94123.38;5065396;28;20754;-80
2023/03/26 01:23:45;;;;;;;0.50;0.50;;;;;;;9.68;75.57;94135.41;5056504;28;20203;-79
2023/03/26 01:26:27;;;;;;;0.30;0.30;;;;;;;9.66;75.59;94133.03;5051502;28;20342;-80
2023/03/26 01:28:57;;;;;;;0.20;0.20;;;;;;;9.64;75.54;94135.28;5066178;28;20195;-79
2023/03/26 01:31:35;;;;;;;1.70;0.50;;;;;;;9.63;75.88;94139.88;5048202;28;20200;-79
2023/03/26 01:34:11;;;;;;;0.22;0.22;;;;;;;9.54;76.31;94138.41;5064663;28;20692;-81
2023/03/26 01:36:46;;;;;;;0.40;0.40;;;;;;;9.47;77.21;94135.44;5056525;28;20203;-82
2023/03/26 01:39:19;;;;;;;0.50;0.50;;;;;;;9.44;77.53;94136.09;5056814;28;20251;-77
2023/03/26 01:41:50;;;;;;;0.25;0.25;;;;;;;9.42;78.07;94146.47;5058341;28;20638;-78
2023/03/26 01:44:23;;;;;;;0.22;0.22;;;;;;;9.42;78.17;94132.94;5063529;28;20720;-84
2023/03/26 01:46:52;;;;;;;0.45;0.45;;;;;;;9.45;78.34;94151.19;5057472;28;20206;-78
2023/03/26 01:49:19;;;;;;;0.32;0.32;;;;;;;9.45;78.43;94143.06;5057737;28;20289;-78
2023/03/26 01:51:47;;;;;;;0.68;0.68;;;;;;;9.55;77.99;94145.41;5069225;28;20561;-78
2023/03/26 01:54:18;;;;;;;0.52;0.43;;;;;;;9.53;78.37;94150.34;5050743;28;20204;-80
2023/03/26 01:56:58;;;;;;;0.57;0.50;;;;;;;9.56;78.76;94155.09;5063718;28;20199;-78
2023/03/26 01:59:51;;;;;;;0.70;0.40;;;;;;;9.58;78.98;94152.81;5060511;28;21362;-78
2023/03/26 02:02:26;;;;;;;0.40;0.40;;;;;;;9.51;79.58;94152.56;5057211;28;20698;-78
2023/03/26 02:05:00;;;;;;;0.55;0.55;;;;;;;9.44;80.12;94157.72;5056535;28;20253;-78
2023/03/26 02:07:36;;;;;;;0.45;0.45;;;;;;;9.32;80.71;94149.56;5062080;28;20195;-78
2023/03/26 02:10:09;;;;;;;0.60;0.40;;;;;;;9.23;80.91;94152.34;5069850;28;20238;-78
2023/03/26 02:12:37;;;;;;;0.93;0.40;;;;;;;9.20;80.91;94156.50;5069652;28;20225;-83
2023/03/26 02:15:05;;;;;;;0.55;0.55;;;;;;;9.11;81.04;94149.56;5051549;28;20203;-81
2023/03/26 02:17:32;;;;;;;0.43;0.43;;;;;;;9.11;81.01;94154.97;5056876;28;20310;-77
2023/03/26 02:20:04;;;;;;;0.52;0.52;;;;;;;9.06;80.96;94153.25;5068680;28;20195;-78
2023/03/26 02:22:31;;;;;;;0.73;0.70;;;;;;;9.06;80.83;94153.25;5056529;28;20231;-78
2023/03/26 02:24:58;;;;;;;0.68;0.50;;;;;;;9.11;80.56;94155.78;5069449;28;20203;-77
2023/03/26 02:27:25;;;;;;;0.80;0.75;;;;;;;9.04;80.68;94144.69;5068071;28;20199;-77
2023/03/26 02:29:53;;;;;;;0.68;0.60;;;;;;;9.00;80.74;94141.09;5052340;28;20265;-78
2023/03/26 02:32:19;;;;;;;0.65;0.65;;;;;;;9.13;80.12;94158.94;5061096;28;20256;-77
2023/03/26 02:34:46;;;;;;;1.67;0.80;;;;;;;9.22;79.56;94146.16;5061524;28;20208;-82
2023/03/26 02:37:13;;;;;;;0.80;0.80;;;;;;;9.34;79.01;94147.31;5057537;28;20212;-79
2023/03/26 02:39:40;;;;;;;0.38;0.38;;;;;;;9.39;78.54;94152.53;5056025;28;20206;-80
2023/03/26 02:42:07;;;;;;;0.85;0.60;;;;;;;9.48;78.09;94147.81;5067839;28;20226;-79
2023/03/26 02:44:34;;;;;;;0.60;0.60;;;;;;;9.55;77.81;94153.50;5057379;28;20252;-78
2023/03/26 02:47:02;;;;;;;0.80;0.80;;;;;;;9.59;77.79;94162.50;5055165;28;20203;-78
2023/03/26 02:49:28;;;;;;;0.70;0.70;;;;;;;9.49;78.65;94160.22;5059837;28;20199;-75
2023/03/26 02:51:56;;;;;;;0.30;0.30;;;;;;;9.43;79.29;94172.38;5055015;28;20210;-78
2023/03/26 02:54:23;;;;;;;0.43;0.43;;;;;;;9.33;79.76;94175.47;5052262;28;20285;-79
2023/03/26 02:56:50;;;;;;;0.65;0.65;;;;;;;9.21;80.32;94177.00;5066737;28;20284;-79
2023/03/26 02:59:17;;;;;;;0.90;0.80;;;;;;;9.23;79.57;94184.78;5051691;28;20709;-79
2023/03/26 03:01:43;;;;;;;0.70;0.70;;;;;;;9.25;79.85;94191.44;5054658;28;20210;-78
2023/03/26 03:04:12;;;;;;;0.60;0.60;;;;;;;9.23;80.29;94190.97;5043253;28;20246;-79
2023/03/26 03:06:40;;;;;;;1.35;1.00;;;;;;;9.22;80.67;94194.78;5064580;28;20211;-78
2023/03/26 03:09:08;;;;;;;1.17;0.93;;;;;;;9.18;81.08;94193.06;5057742;28;20729;-79
2023/03/26 03:11:35;;;;;;;3.08;1.30;;;;;;;9.17;80.52;94191.47;5055300;28;20214;-77
2023/03/26 03:14:02;;;;;;;1.70;1.17;;;;;;;9.14;80.26;94206.47;5058916;28;20246;-77
2023/03/26 03:16:29;;;;;;;1.20;0.90;;;;;;;9.07;80.51;94203.47;5061781;28;20204;-78
2023/03/26 03:18:56;;;;;;;1.58;0.93;;;;;;;9.05;80.71;94200.31;5058608;28;20227;-77
2023/03/26 03:21:26;;;;;;;1.02;0.93;;;;;;;8.98;80.58;94200.03;5055115;28;20249;-77
2023/03/26 03:23:53;;;;;;;0.80;0.70;;;;;;;8.83;81.24;94196.00;5056444;28;20224;-78
2023/03/26 03:26:26;;;;;;;2.38;1.75;;;;;;;8.77;81.55;94199.19;5060904;28;20208;-78
2023/03/26 03:28:54;;;;;;;0.88;0.88;;;;;;;8.71;81.68;94211.31;5051003;28;20198;-78
2023/03/26 03:31:21;;;;;;;0.73;0.73;;;;;;;8.66;82.01;94208.78;5061160;28;20200;-79
2023/03/26 03:33:48;;;;;;;1.13;0.98;;;;;;;8.62;81.95;94202.47;5048369;28;20208;-82
2023/03/26 03:36:17;;;;;;;2.17;1.10;;;;;;;8.71;81.88;94208.63;5061390;28;20605;-79
2023/03/26 03:38:45;;;;;;;0.90;0.90;;;;;;;8.71;82.00;94211.31;5061314;28;20209;-79
2023/03/26 03:41:12;;;;;;;1.13;0.80;;;;;;;8.70;82.08;94215.13;5056284;28;20720;-83
2023/03/26 03:43:38;;;;;;;1.02;0.93;;;;;;;8.68;81.97;94206.56;5054967;28;20231;-77
2023/03/26 03:46:05;;;;;;;2.47;1.50;;;;;;;8.60;82.49;94202.81;5060546;28;20203;-77
2023/03/26 03:48:36;;;;;;;2.42;1.40;;;;;;;8.53;82.62;94197.09;5061438;28;20199;-78
2023/03/26 03:51:04;;;;;;;1.63;1.20;;;;;;;8.51;83.05;94200.13;5049229;28;20204;-79
2023/03/26 03:53:35;;;;;;;2.50;1.23;;;;;;;8.48;83.14;94218.88;5068073;28;20207;-79
2023/03/26 03:56:08;;;;;;;1.70;1.20;;;;;;;8.58;82.50;94217.75;5057878;28;20294;-79
2023/03/26 03:58:36;;;;;;;2.55;1.08;;;;;;;8.62;82.51;94224.06;5064741;28;20223;-77
2023/03/26 04:01:03;;;;;;;3.80;1.52;;;;;;;8.70;82.13;94225.94;5056534;28;20257;-79
2023/03/26 04:03:30;;;;;;;1.83;1.52;;;;;;;8.75;82.05;94223.81;5061551;28;20233;-79
2023/03/26 04:05:57;;;;;;;1.35;1.00;;;;;;;8.71;81.80;94212.13;5047965;28;20278;-78
2023/03/26 04:08:24;;;;;;;1.92;1.55;;;;;;;8.76;81.87;94221.91;5060744;28;20269;-78
2023/03/26 04:10:51;;;;;;;2.08;1.60;;;;;;;8.75;82.04;94223.81;5047586;28;20219;-78
2023/03/26 04:13:20;;;;;;;3.67;1.50;;;;;;;8.76;81.76;94230.81;5061295;28;20265;-78
2023/03/26 04:15:47;;;;;;;1.70;1.02;;;;;;;8.66;82.13;94235.78;5047500;28;20643;-79
2023/03/26 04:18:14;;;;;;;2.42;1.70;;;;;;;8.70;81.85;94242.13;5061058;28;20867;-81
2023/03/26 04:20:45;;;;;;;1.92;1.40;;;;;;;8.69;82.05;94244.03;5054097;28;20206;-78
2023/03/26 04:23:13;;;;;;;2.22;1.50;;;;;;;8.73;81.64;94257.69;5067188;28;20260;-78
2023/03/26 04:25:40;;;;;;;1.90;1.27;;;;;;;8.76;81.58;94262.44;5054045;28;20214;-78
2023/03/26 04:28:10;;;;;;;2.42;2.03;;;;;;;8.75;81.84;94277.03;5054634;28;20203;-79
2023/03/26 04:30:41;;;;;;;2.60;1.92;;;;;;;8.72;81.94;94264.22;5054865;28;20199;-77
2023/03/26 04:33:14;;;;;;;2.00;1.48;;;;;;;8.71;81.92;94276.13;5060665;28;20199;-78
2023/03/26 04:35:43;;;;;;;2.35;1.67;;;;;;;8.72;81.60;94280.41;5063342;28;20244;-76
2023/03/26 04:38:11;;;;;;;2.13;1.50;;;;;;;8.73;81.48;94280.09;5058228;28;20200;-77
2023/03/26 04:40:38;;;;;;;1.80;1.30;;;;;;;8.78;81.69;94281.81;5061540;28;20199;-79
2023/03/26 04:43:05;;;;;;;1.58;1.48;;;;;;;8.81;81.21;94294.66;5048522;28;20239;-77
2023/03/26 04:45:32;;;;;;;1.52;1.42;;;;;;;8.93;80.56;94300.16;5055794;28;20249;-76
2023/03/26 04:48:01;;;;;;;2.83;1.98;;;;;;;8.88;80.72;94292.25;5059500;28;20207;-74
2023/03/26 04:50:28;;;;;;;1.52;1.42;;;;;;;8.78;80.72;94292.59;5063040;28;20204;-75
2023/03/26 04:52:57;;;;;;;1.92;1.27;;;;;;;8.83;80.52;94287.03;5059447;28;20210;-75
2023/03/26 04:55:27;;;;;;;1.73;1.35;;;;;;;8.80;80.71;94301.19;5055412;28;20195;-76
2023/03/26 04:57:58;;;;;;;1.52;1.30;;;;;;;8.89;79.69;94289.22;5058218;28;20205;-77
2023/03/26 05:00:27;;;;;;;4.00;1.85;;;;;;;9.03;79.13;94294.38;5055015;28;20618;-75
2023/03/26 05:02:56;;;;;;;1.63;1.42;;;;;;;9.18;77.80;94295.75;5057531;28;20299;-76
2023/03/26 05:05:25;;;;;;;2.97;2.33;;;;;;;9.76;76.14;94294.88;5057932;28;20192;-77
2023/03/26 05:07:52;;;;;;;2.55;1.70;;;;;;;10.33;73.13;94288.84;5060976;28;20203;-77
2023/03/26 05:10:21;;;;;;;2.85;1.75;;;;;;;11.30;69.85;94286.25;5060275;28;20252;-76
2023/03/26 05:12:51;;;;;;;2.72;2.03;;;;;;;11.37;67.74;94283.75;5060077;28;20203;-75
2023/03/26 05:15:17;;;;;;;2.47;1.95;;;;;;;11.62;66.98;94308.91;5061355;28;20196;-76
2023/03/26 05:17:45;;;;;;;3.17;2.42;;;;;;;12.14;64.45;94280.22;5060606;28;20868;-80
2023/03/26 05:20:19;;;;;;;4.40;2.22;;;;;;;11.77;64.72;94288.44;5058165;28;20214;-78
2023/03/26 05:22:48;;;;;;;2.88;2.25;;;;;;;12.88;62.16;94309.34;5059678;28;20223;-79
2023/03/26 05:25:15;;;;;;;3.13;2.60;;;;;;;13.03;60.94;94299.63;5058650;28;20199;-76
2023/03/26 05:27:42;;;;;;;2.28;1.85;;;;;;;13.25;61.45;94295.56;5055980;28;20200;-77
2023/03/26 05:30:14;;;;;;;2.53;1.88;;;;;;;12.75;62.12;94305.94;5060243;28;20256;-76
2023/03/26 05:32:41;;;;;;;5.80;3.70;;;;;;;12.58;63.09;94316.31;5060746;28;20260;-75
2023/03/26 05:35:08;;;;;;;3.42;2.83;;;;;;;13.26;61.19;94302.53;5061503;28;20198;-77
2023/03/26 05:37:36;;;;;;;2.03;1.60;;;;;;;13.31;60.49;94305.78;5053557;28;20204;-80
2023/03/26 05:40:10;;;;;;;3.08;2.35;;;;;;;13.73;59.80;94307.94;5055683;28;20199;-75
2023/03/26 05:42:37;;;;;;;3.70;2.83;;;;;;;13.28;60.56;94306.50;5057788;28;20700;-76
2023/03/26 05:45:05;;;;;;;4.35;2.58;;;;;;;12.81;62.01;94312.69;5053880;28;20612;-76
2023/03/26 05:47:32;;;;;;;4.60;3.72;;;;;;;13.38;60.96;94305.97;5064500;28;20272;-75
2023/03/26 05:49:58;;;;;;;5.45;4.22;;;;;;;13.76;59.51;94315.38;5047311;28;20201;-74
2023/03/26 05:52:25;;;;;;;3.90;2.63;;;;;;;13.96;58.82;94311.53;5058977;28;20306;-75
2023/03/26 05:54:52;;;;;;;2.63;2.10;;;;;;;13.54;60.08;94316.81;5054170;28;20215;-76
2023/03/26 05:57:21;;;;;;;2.63;2.25;;;;;;;13.72;59.29;94314.50;5046026;28;20666;-73
2023/03/26 05:59:47;;;;;;;2.63;1.95;;;;;;;13.00;61.10;94312.00;5057224;28;20713;-72
2023/03/26 06:02:14;;;;;;;4.05;2.90;;;;;;;13.70;59.97;94300.47;5052144;28;20249;-74
2023/03/26 06:04:41;;;;;;;3.70;2.25;;;;;;;14.03;58.32;94295.38;5053572;28;20313;-74
2023/03/26 06:07:08;;;;;;;4.07;2.90;;;;;;;13.55;59.42;94298.56;5062046;28;20203;-73
2023/03/26 06:09:37;;;;;;;3.08;2.17;;;;;;;14.37;57.05;94295.66;5058576;28;20195;-73
2023/03/26 06:12:04;;;;;;;2.63;2.25;;;;;;;13.64;58.99;94296.47;5059979;28;20282;-72
2023/03/26 06:14:32;;;;;;;3.10;2.53;;;;;;;14.77;56.99;94290.59;5059509;28;20195;-73
2023/03/26 06:16:59;;;;;;;2.70;1.98;;;;;;;14.96;54.51;94283.53;5056547;28;20723;-75
2023/03/26 06:19:26;;;;;;;10.43;2.65;;;;;;;15.18;53.63;94285.47;5056156;28;20255;-75
2023/03/26 06:21:53;;;;;;;3.20;2.20;;;;;;;14.80;54.10;94292.59;5045578;28;20204;-76
2023/03/26 06:24:20;;;;;;;3.40;2.40;;;;;;;14.72;54.34;94295.59;5058706;28;20272;-73
2023/03/26 06:26:47;;;;;;;2.42;2.20;;;;;;;13.62;56.94;94296.00;5052991;28;20286;-78
2023/03/26 06:29:14;;;;;;;3.03;2.42;;;;;;;13.24;58.45;94293.97;5052880;28;20594;-80
2023/03/26 06:31:43;;;;;;;5.13;3.72;;;;;;;14.08;56.02;94295.06;5054088;28;20210;-73
2023/03/26 06:34:10;;;;;;;4.18;2.38;;;;;;;14.01;55.70;94294.94;5060674;28;20195;-75
2023/03/26 06:36:36;;;;;;;1.88;1.52;;;;;;;13.76;55.93;94288.16;5060460;28;20535;-75
2023/03/26 06:39:04;;;;;;;2.60;2.25;;;;;;;13.93;55.24;94287.75;5058843;28;20333;-79
2023/03/26 06:41:33;;;;;;;3.22;2.08;;;;;;;13.32;56.89;94299.22;5053259;28;20239;-85
2023/03/26 06:44:00;;;;;;;2.78;2.03;;;;;;;13.39;57.25;94291.22;5059389;28;20693;-74
2023/03/26 06:46:27;;;;;;;2.75;1.70;;;;;;;13.42;57.26;94301.38;5057794;28;20199;-75
2023/03/26 06:48:55;;;;;;;5.03;3.63;;;;;;;13.66;55.67;94294.97;5057462;28;20195;-78
2023/03/26 06:51:22;;;;;;;3.55;2.78;;;;;;;13.61;55.80;94302.59;5057664;28;20203;-76
2023/03/26 06:53:48;;;;;;;2.22;1.55;;;;;;;13.84;54.46;94298.06;5059474;28;20195;-74
2023/03/26 06:56:15;;;;;;;11.63;2.30;;;;;;;12.99;57.42;94309.63;5049802;28;20208;-73
2023/03/26 06:58:42;;;;;;;3.55;2.20;;;;;;;12.94;57.11;94323.50;5056439;28;20215;-76
2023/03/26 07:01:09;;;;;;;1.92;1.48;;;;;;;12.49;57.20;94316.47;5055742;28;20209;-85
2023/03/26 07:03:36;;;;;;;3.70;2.80;;;;;;;12.45;58.29;94334.59;5061046;28;20701;-74
2023/03/26 07:06:04;;;;;;;3.67;2.63;;;;;;;12.44;59.10;94339.25;5052438;28;20196;-76
2023/03/26 07:08:31;;;;;;;4.65;3.10;;;;;;;12.67;58.81;94336.78;5057846;28;20207;-76
2023/03/26 07:11:00;;;;;;;2.15;1.88;;;;;;;12.81;58.09;94348.03;5059658;28;20226;-80
2023/03/26 07:13:27;;;;;;;2.20;1.95;;;;;;;12.91;57.41;94335.06;5054812;28;20261;-76
2023/03/26 07:15:54;;;;;;;3.72;2.88;;;;;;;13.66;55.87;94337.72;5053680;28;20195;-75
2023/03/26 07:18:21;;;;;;;2.97;2.30;;;;;;;13.40;55.67;94339.03;5053467;28;20660;-76
2023/03/26 07:20:48;;;;;;;1.48;1.38;;;;;;;12.77;56.73;94335.47;5057459;28;20241;-77
2023/03/26 07:23:19;;;;;;;3.65;2.35;;;;;;;13.01;56.00;94334.53;5058345;28;20199;-77
2023/03/26 07:25:47;;;;;;;2.58;2.00;;;;;;;12.89;57.36;94326.47;5052540;28;20195;-76
2023/03/26 07:28:24;;;;;;;6.47;4.57;;;;;;;12.93;58.01;94316.47;5057936;28;20195;-75
2023/03/26 07:31:10;;;;;;;6.03;4.05;;;;;;;13.22;56.69;94318.78;5055524;28;20194;-74
2023/03/26 07:33:44;;;;;;;2.65;2.22;;;;;;;13.21;56.19;94306.34;5058895;28;20756;-77
2023/03/26 07:36:23;;;;;;;4.18;2.70;;;;;;;13.06;56.32;94312.53;5058457;28;20199;-77
2023/03/26 07:39:08;;;;;;;4.80;3.28;;;;;;;13.22;56.84;94304.41;5059241;28;20196;-76
2023/03/26 07:41:42;;;;;;;2.05;1.52;;;;;;;13.12;56.40;94297.50;5059109;28;20249;-81
2023/03/26 07:44:30;;;;;;;3.70;2.38;;;;;;;13.27;55.80;94304.91;5055291;28;20222;-76
2023/03/26 07:47:00;;;;;;;3.53;2.65;;;;;;;13.32;55.77;94301.94;5055701;28;20203;-78
2023/03/26 07:49:28;;;;;;;5.70;3.72;;;;;;;13.29;54.45;94308.06;5056315;28;20253;-76
2023/03/26 07:51:55;;;;;;;6.03;3.78;;;;;;;12.96;56.82;94302.19;5057802;28;20199;-76
2023/03/26 07:54:24;;;;;;;4.63;3.80;;;;;;;12.79;57.04;94306.81;5059416;28;20192;-76
2023/03/26 07:56:55;;;;;;;4.18;3.55;;;;;;;12.37;56.71;94311.91;5054242;28;20604;-76
2023/03/26 07:59:31;;;;;;;6.40;4.18;;;;;;;13.19;56.59;94303.19;5055936;28;20254;-76
2023/03/26 08:02:18;;;;;;;4.78;3.63;;;;;;;13.68;54.70;94297.31;5058123;28;20199;-75
2023/03/26 08:04:56;;;;;;;5.55;3.67;;;;;;;13.90;51.63;94301.31;5049859;28;20218;-74
2023/03/26 08:07:33;;;;;;;3.25;2.55;;;;;;;13.14;50.83;94300.69;5051515;28;20201;-74
2023/03/26 08:10:08;;;;;;;2.85;2.15;;;;;;;13.26;52.86;94297.88;5061444;28;20620;-76
2023/03/26 08:12:47;;;;;;;4.03;1.98;;;;;;;13.39;51.31;94296.66;5055288;28;20198;-74
2023/03/26 08:15:21;;;;;;;3.20;2.65;;;;;;;13.49;50.80;94301.56;5055881;28;20220;-75
2023/03/26 08:17:52;;;;;;;2.85;1.70;;;;;;;13.61;49.50;94297.16;5058837;28;20281;-76
2023/03/26 08:20:30;;;;;;;2.42;2.10;;;;;;;13.89;49.71;94292.34;5059309;28;20206;-73
2023/03/26 08:23:05;;;;;;;3.67;2.20;;;;;;;13.05;51.46;94294.63;5061104;28;20199;-75
2023/03/26 08:25:50;;;;;;;3.55;1.50;;;;;;;12.78;52.06;94299.78;5056257;28;20219;-80
2023/03/26 08:28:31;;;;;;;3.60;2.30;;;;;;;12.86;52.30;94299.97;5056493;28;20199;-79
2023/03/26 08:31:01;;;;;;;2.55;1.75;;;;;;;12.92;50.52;94296.66;5055738;28;20199;-82
2023/03/26 08:33:29;;;;;;;2.35;1.42;;;;;;;12.88;50.96;94297.69;5053918;28;20760;-80
2023/03/26 08:35:56;;;;;;;2.50;1.98;;;;;;;13.32;49.85;94306.59;5062471;28;20215;-78
2023/03/26 08:38:23;;;;;;;3.25;2.03;;;;;;;13.71;49.75;94299.31;5058532;28;20254;-77
2023/03/26 08:41:18;;;;;;;3.75;2.13;;;;;;;13.72;50.39;94298.97;5054318;28;20203;-76
2023/03/26 08:44:29;;;;;;;3.47;1.77;;;;;;;13.55;50.01;94293.13;5055995;28;20330;-76
2023/03/26 08:47:23;;;;;;;2.60;1.75;;;;;;;13.44;50.49;94296.38;5061301;28;20724;-80
2023/03/26 08:50:29;;;;;;;1.50;1.00;;;;;;;13.71;51.21;94293.88;5059551;28;20205;-73
2023/03/26 08:53:44;;;;;;;3.53;2.08;;;;;;;14.24;50.06;94295.78;4982602;28;20201;-76
2023/03/26 08:56:20;;;;;;;2.80;1.90;;;;;;;13.87;50.50;94305.53;5005535;28;20201;-78
2023/03/26 08:59:22;;;;;;;3.03;1.70;;;;;;;14.06;48.25;94299.31;5006091;28;20294;-76
2023/03/26 09:02:29;;;;;;;4.50;1.67;;;;;;;14.18;47.98;94299.97;5033911;28;20685;-76
2023/03/26 09:05:32;;;;;;;2.28;1.30;;;;;;;13.70;46.16;94284.13;5059333;28;20280;-79
2023/03/26 09:08:44;;;;;;;2.35;1.33;;;;;;;13.88;47.56;94296.22;5064406;28;20646;-73
2023/03/26 09:11:49;;;;;;;1.20;1.10;;;;;;;14.46;46.38;94301.72;5051409;28;21000;-78
2023/03/26 09:14:50;;;;;;;2.08;1.20;;;;;;;14.32;46.94;94302.19;5064636;28;20203;-77
2023/03/26 09:17:51;;;;;;;1.33;1.08;;;;;;;14.24;47.79;94282.16;5060568;28;20670;-75
2023/03/26 09:20:54;;;;;;;1.73;1.30;;;;;;;14.53;46.92;94277.31;5060194;28;20210;-79
2023/03/26 09:23:54;;;;;;;2.95;1.67;;;;;;;14.38;46.75;94281.66;5036515;28;20203;-77
2023/03/26 09:26:36;;;;;;;1.08;0.75;;;;;;;13.78;47.07;94280.44;5038139;28;20204;-79
2023/03/26 09:29:39;;;;;;;2.15;1.02;;;;;;;13.76;46.08;94271.84;5059240;28;20793;-80
2023/03/26 09:32:42;;;;;;;3.17;1.00;;;;;;;13.84;45.05;94284.44;5056766;28;20218;-77
2023/03/26 09:35:21;;;;;;;2.58;1.75;;;;;;;14.11;45.06;94283.47;5053893;28;20199;-75
2023/03/26 09:37:57;;;;;;;2.75;1.70;;;;;;;14.36;44.85;94277.72;5050336;28;20207;-77
2023/03/26 09:40:35;;;;;;;0.85;0.82;;;;;;;13.72;44.33;94276.41;5061405;28;20641;-79
2023/03/26 09:43:29;;;;;;;2.17;1.00;;;;;;;14.10;46.61;94281.88;5060563;28;20200;-78
2023/03/26 09:46:10;;;;;;;1.20;1.00;;;;;;;13.97;47.17;94272.28;5062238;28;20230;-77
2023/03/26 09:49:36;;;;;;;2.22;1.73;;;;;;;14.65;45.32;94268.97;5056455;28;20210;-75
2023/03/26 09:52:20;;;;;;;0.70;0.70;;;;;;;14.64;44.24;94277.50;5006789;28;20209;-81
2023/03/26 09:55:08;;;;;;;1.63;0.90;;;;;;;14.74;44.30;94266.03;5006379;28;20194;-74
2023/03/26 09:57:57;;;;;;;3.38;1.40;;;;;;;14.63;45.96;94265.00;5049566;28;20996;-77
2023/03/26 10:00:35;;;;;;;1.50;1.10;;;;;;;14.40;46.83;94256.81;5061358;28;21030;-75
2023/03/26 10:03:29;;;;;;;2.75;1.63;;;;;;;14.73;45.78;94251.59;5067502;28;20755;-76
2023/03/26 10:06:10;;;;;;;2.97;1.45;;;;;;;15.20;44.45;94250.41;5036445;28;20682;-75
2023/03/26 10:08:47;;;;;;;1.92;1.25;;;;;;;15.18;44.14;94241.81;5068008;28;20298;-79
2023/03/26 10:11:21;;;;;;;2.42;1.00;;;;;;;15.01;44.06;94245.06;5056175;28;20310;-77
2023/03/26 10:14:07;;;;;;;1.17;0.85;;;;;;;15.01;45.10;94242.31;5060403;28;20210;-76
2023/03/26 10:16:45;;;;;;;3.28;1.30;;;;;;;14.69;44.79;94237.09;5063200;28;20277;-75
2023/03/26 10:19:30;;;;;;;0.93;0.80;;;;;;;14.64;43.59;94234.66;5054928;28;20311;-78
2023/03/26 10:22:08;;;;;;;1.02;0.80;;;;;;;14.77;43.53;94227.88;5058629;28;20218;-76
2023/03/26 10:25:17;;;;;;;1.58;1.08;;;;;;;14.80;42.43;94223.66;5051246;28;20219;-76
2023/03/26 10:27:56;;;;;;;1.10;0.90;;;;;;;14.88;40.00;94209.78;5044623;28;20207;-80
2023/03/26 10:30:48;;;;;;;1.23;0.80;;;;;;;14.93;40.75;94209.47;5049143;28;20203;-77
2023/03/26 10:33:23;;;;;;;2.30;0.85;;;;;;;14.98;41.75;94202.13;5058307;28;20199;-77
2023/03/26 10:36:02;;;;;;;7.22;0.98;;;;;;;15.17;41.87;94197.34;5048440;28;20677;-77
2023/03/26 10:38:47;;;;;;;1.35;1.00;;;;;;;15.40;40.18;94193.81;5051574;28;20264;-76
2023/03/26 10:41:19;;;;;;;0.70;0.63;;;;;;;15.68;39.49;94190.72;5056899;28;20256;-76
2023/03/26 10:44:16;;;;;;;0.40;0.40;;;;;;;15.20;39.16;94201.31;5061739;28;20195;-78
2023/03/26 10:47:21;;;;;;;0.82;0.50;;;;;;;14.84;40.30;94181.66;5038714;28;20657;-76
2023/03/26 10:50:02;;;;;;;0.80;0.70;;;;;;;15.16;39.94;94184.91;5033813;28;20219;-76
2023/03/26 10:52:37;;;;;;;0.30;0.30;;;;;;;15.26;38.59;94188.94;5055992;28;20206;-80
2023/03/26 10:55:14;;;;;;;2.22;0.77;;;;;;;15.46;39.75;94179.47;5058562;28;20195;-77
2023/03/26 10:57:45;;;;;;;0.65;0.60;;;;;;;15.68;38.61;94177.06;5059177;28;20565;-77
2023/03/26 11:00:23;;;;;;;0.60;0.52;;;;;;;15.70;37.64;94172.00;5062331;28;20195;-81
2023/03/26 11:03:08;;;;;;;1.48;0.65;;;;;;;15.58;38.35;94157.41;5049173;28;20592;-78
2023/03/26 11:05:48;;;;;;;0.55;0.55;;;;;;;15.29;37.69;94171.81;5051506;28;20597;-79
2023/03/26 11:08:21;;;;;;;0.68;0.65;;;;;;;15.19;36.13;94175.16;5062881;28;20210;-78
2023/03/26 11:10:56;;;;;;;1.27;0.80;;;;;;;14.79;36.31;94167.53;5058883;28;20585;-78
2023/03/26 11:13:33;;;;;;;1.05;0.68;;;;;;;15.37;36.16;94168.03;5054107;28;20232;-76
2023/03/26 11:16:04;;;;;;;0.93;0.60;;;;;;;15.05;35.74;94172.22;5055375;28;20207;-76
2023/03/26 11:18:38;;;;;;;2.22;1.30;;;;;;;15.43;35.71;94155.66;5054659;28;20258;-75
2023/03/26 11:21:10;;;;;;;8.45;2.67;;;;;;;15.79;35.59;94151.44;5050898;28;20662;-74
2023/03/26 11:23:46;;;;;;;1.77;1.00;;;;;;;16.17;34.40;94144.84;5058701;28;20236;-80
2023/03/26 11:26:17;;;;;;;0.68;0.63;;;;;;;16.54;34.45;94141.28;5053629;28;20922;-75
2023/03/26 11:29:00;;;;;;;1.63;0.82;;;;;;;16.39;34.75;94145.88;5065178;28;20191;-78
2023/03/26 11:31:35;;;;;;;1.52;0.60;;;;;;;15.58;35.56;94157.41;5060475;28;20269;-77
2023/03/26 11:34:08;;;;;;;0.80;0.80;;;;;;;15.46;36.22;94157.63;5056846;28;20268;-85
2023/03/26 11:36:39;;;;;;;1.48;0.88;;;;;;;15.57;36.31;94134.03;5049057;28;20254;-76
2023/03/26 11:39:12;;;;;;;1.00;0.60;;;;;;;15.94;34.53;94130.53;5052948;28;20203;-77
2023/03/26 11:41:40;;;;;;;2.53;0.73;;;;;;;15.80;34.30;94135.84;5056132;28;20192;-81
2023/03/26 11:44:19;;;;;;;1.10;0.90;;;;;;;15.38;35.04;94131.41;5057240;28;20199;-80
2023/03/26 11:46:49;;;;;;;2.05;0.70;;;;;;;15.34;35.55;94119.63;5049011;28;20202;-79
2023/03/26 11:49:19;;;;;;;0.93;0.77;;;;;;;15.68;35.33;94106.06;5055369;28;20674;-81
2023/03/26 11:51:47;;;;;;;1.25;0.75;;;;;;;15.75;35.08;94106.13;5061662;28;20253;-78
2023/03/26 11:54:15;;;;;;;0.90;0.70;;;;;;;15.45;35.22;94097.94;5048872;28;20192;-78
2023/03/26 11:56:48;;;;;;;0.65;0.60;;;;;;;15.71;35.80;94089.72;5052750;28;20652;-86
2023/03/26 11:59:17;;;;;;;2.17;0.88;;;;;;;15.53;35.62;94081.28;5059167;28;20207;-80
2023/03/26 12:01:51;;;;;;;1.05;0.80;;;;;;;15.98;35.52;94087.66;5048195;28;20221;-80
2023/03/26 12:04:19;;;;;;;0.70;0.70;;;;;;;16.20;34.81;94062.13;5049212;28;20203;-84
2023/03/26 12:06:56;;;;;;;0.68;0.68;;;;;;;16.07;34.68;94060.81;5057768;28;20241;-84